Overview Statistics Trail Chart Weather Telemetry Raw packets
 

This is the latest recevied weather packets stored in our database for station/object IU5JAE-13. If no packets are shown the sender has not sent any weather packets the latest 10 day(s).

<< 12 13 14 15 16 17 18 >>
Time Temp. Humidity Pressure Rain* Wind** Luminosity Snow
1788513348 28.89° C 60% 1022.3 hPa 0 mm - 505 W/m² -
1788512730 27.78° C 63% 1022.4 hPa 0 mm - 485 W/m² -
1788512128 27.78° C 63% 1022.4 hPa 0 mm - 466 W/m² -
1788511526 27.22° C 64% 1022.3 hPa 0 mm - 447 W/m² -
1788510923 27.22° C 65% 1022.2 hPa 0 mm - 430 W/m² -
1788510321 27.78° C 64% 1022 hPa 0 mm - 411 W/m² -
1788509719 27.22° C 66% 1021.9 hPa 0 mm - 389 W/m² -
1788509116 27.22° C 66% 1021.8 hPa 0 mm - 366 W/m² -
1788508534 27.22° C 67% 1021.9 hPa 0 mm - 339 W/m² -
1788507931 25.56° C 70% 1021.8 hPa 0 mm - 315 W/m² -
1788507329 25.56° C 69% 1021.7 hPa 0 mm - 290 W/m² -
1788506726 25.56° C 69% 1021.7 hPa 0 mm - 259 W/m² -
1788506124 24.44° C 71% 1021.7 hPa 0 mm - 230 W/m² -
1788505522 25° C 71% 1021.5 hPa 0 mm - 207 W/m² -
1788504919 25° C 71% 1021.5 hPa 0 mm - 186 W/m² -
1788504317 25.56° C 70% 1021.6 hPa 0 mm - 164 W/m² -
1788503735 25° C 71% 1021.6 hPa 0 mm - 135 W/m² -
1788503132 25° C 71% 1021.5 hPa 0 mm - 105 W/m² -
1788502530 24.44° C 69% 1021.6 hPa 0 mm - 85 W/m² -
1788501927 24.44° C 70% 1021.6 hPa 0 mm - 70 W/m² -
1788501325 24.44° C 69% 1021.6 hPa 0 mm - 58 W/m² -
1788500723 23.33° C 70% 1021.6 hPa 0 mm - 46 W/m² -
1788500120 23.33° C 69% 1021.4 hPa 0 mm - 36 W/m² -
1788499518 22.22° C 73% 1021.5 hPa 0 mm - 25 W/m² -
1788498915 21.11° C 76% 1021.3 hPa 0 mm - 17 W/m² -

* Rain latest hour (hover to see other rain measurements)
** Current wind speed in m/s (hover to see current wind gust speed)